createdAt,value
2017-12-24T00:01:50.257Z,90.50
2017-12-24T00:04:17.413Z,90.60
2017-12-24T00:06:44.536Z,90.50
2017-12-24T00:09:11.681Z,90.50
2017-12-24T00:11:39.576Z,90.50
2017-12-24T00:14:06.718Z,90.50
2017-12-24T00:16:33.853Z,90.80
2017-12-24T00:19:01.768Z,90.90
2017-12-24T00:21:28.893Z,90.90
2017-12-24T00:23:56.062Z,90.90
2017-12-24T00:26:23.182Z,90.80
2017-12-24T00:28:51.101Z,90.70
2017-12-24T00:31:18.340Z,90.70
2017-12-24T00:33:45.480Z,90.80
2017-12-24T00:36:12.615Z,90.70
2017-12-24T00:38:39.773Z,91.00
2017-12-24T00:41:06.914Z,90.70
2017-12-24T00:43:34.092Z,90.80
2017-12-24T00:46:01.237Z,90.90
2017-12-24T00:48:28.395Z,90.70
2017-12-24T00:50:55.572Z,90.70
2017-12-24T00:53:22.686Z,91.00
2017-12-24T00:55:49.830Z,90.90
2017-12-24T00:58:17.050Z,91.00
2017-12-24T01:00:45.672Z,91.30
2017-12-24T01:03:12.849Z,91.30
2017-12-24T01:05:39.986Z,91.30
2017-12-24T01:08:07.125Z,91.70
2017-12-24T01:10:34.235Z,91.60
2017-12-24T01:13:02.138Z,91.60
2017-12-24T01:15:29.264Z,91.60
2017-12-24T01:17:56.410Z,91.50
2017-12-24T01:20:23.557Z,91.40
2017-12-24T01:22:50.696Z,91.20
2017-12-24T01:25:18.592Z,91.40
2017-12-24T01:27:45.718Z,91.40
2017-12-24T01:30:13.618Z,91.50
2017-12-24T01:32:40.771Z,91.50
2017-12-24T01:35:07.897Z,91.60
2017-12-24T01:37:35.044Z,91.50
2017-12-24T01:40:02.184Z,91.60
2017-12-24T01:42:29.322Z,91.60
2017-12-24T01:44:57.276Z,91.70
2017-12-24T01:47:24.426Z,91.70
2017-12-24T01:49:51.625Z,91.70
2017-12-24T01:52:18.758Z,91.90
2017-12-24T01:54:45.881Z,91.60
2017-12-24T01:57:13.852Z,91.90
2017-12-24T01:59:41.743Z,92.00
2017-12-24T02:02:08.905Z,91.90
2017-12-24T02:04:36.016Z,92.00
2017-12-24T02:07:03.920Z,92.20
2017-12-24T02:09:31.105Z,92.20
2017-12-24T02:11:58.223Z,92.20
2017-12-24T02:14:25.356Z,91.80
2017-12-24T02:16:52.482Z,92.10
2017-12-24T02:19:20.398Z,91.80
2017-12-24T02:21:47.518Z,91.80
2017-12-24T02:24:14.654Z,92.00
2017-12-24T02:26:42.544Z,91.60
2017-12-24T02:29:09.858Z,91.60
2017-12-24T02:31:36.973Z,91.80
2017-12-24T02:34:04.123Z,91.50
2017-12-24T02:36:31.290Z,91.70
2017-12-24T02:38:58.435Z,91.50
2017-12-24T02:41:25.611Z,91.20
2017-12-24T02:43:52.733Z,91.20
2017-12-24T02:46:19.872Z,91.00
2017-12-24T02:48:46.989Z,91.80
2017-12-24T02:51:14.129Z,91.70
2017-12-24T02:53:42.018Z,91.40
2017-12-24T02:56:09.165Z,91.40
2017-12-24T02:58:36.280Z,91.60
2017-12-24T03:01:04.188Z,91.80
2017-12-24T03:03:31.324Z,91.80
2017-12-24T03:05:58.461Z,91.60
2017-12-24T03:08:26.383Z,91.80
2017-12-24T03:10:53.513Z,91.80
2017-12-24T03:13:20.624Z,91.50
2017-12-24T03:15:48.609Z,91.60
2017-12-24T03:18:15.833Z,91.60
2017-12-24T03:20:44.247Z,91.60
2017-12-24T03:23:11.369Z,91.60
2017-12-24T03:25:39.255Z,91.70
2017-12-24T03:28:06.403Z,91.70
2017-12-24T03:30:33.523Z,91.70
2017-12-24T03:33:01.442Z,91.70
2017-12-24T03:35:28.574Z,91.40
2017-12-24T03:37:55.710Z,91.60
2017-12-24T03:40:23.590Z,91.80
2017-12-24T03:42:50.741Z,91.70
2017-12-24T03:45:17.860Z,91.60
2017-12-24T03:47:45.985Z,91.70
2017-12-24T03:50:13.102Z,91.60
2017-12-24T03:52:40.245Z,91.50
2017-12-24T03:55:08.132Z,91.70
2017-12-24T03:57:35.273Z,91.60
2017-12-24T04:00:02.417Z,91.50
2017-12-24T04:02:29.550Z,91.60
2017-12-24T04:04:57.445Z,91.90
2017-12-24T04:07:24.563Z,91.90
2017-12-24T04:09:52.477Z,92.10
2017-12-24T04:12:19.600Z,92.10
2017-12-24T04:14:46.743Z,91.80
2017-12-24T04:17:14.626Z,92.20
2017-12-24T04:19:41.760Z,92.20
2017-12-24T04:22:09.655Z,92.00
2017-12-24T04:24:36.898Z,92.00
2017-12-24T04:27:04.086Z,92.10
2017-12-24T04:29:31.235Z,92.00
2017-12-24T04:31:58.364Z,91.80
2017-12-24T04:34:25.510Z,91.90
2017-12-24T04:36:52.635Z,91.80
2017-12-24T04:39:19.757Z,91.80
2017-12-24T04:41:47.677Z,91.20
2017-12-24T04:44:14.816Z,91.40
2017-12-24T04:46:41.932Z,91.60
2017-12-24T04:49:09.837Z,91.50
2017-12-24T04:51:36.976Z,91.50
2017-12-24T04:54:04.132Z,91.60
2017-12-24T04:56:31.261Z,91.30
2017-12-24T04:58:59.174Z,91.10
2017-12-24T05:01:27.065Z,90.90
2017-12-24T05:03:54.372Z,90.90
2017-12-24T05:06:21.532Z,91.00
2017-12-24T05:08:48.654Z,91.00
2017-12-24T05:11:17.563Z,90.80
2017-12-24T05:13:44.695Z,90.70
2017-12-24T05:16:13.022Z,90.80
2017-12-24T05:18:40.170Z,90.60
2017-12-24T05:21:07.312Z,90.40
2017-12-24T05:23:34.432Z,90.40
2017-12-24T05:26:01.566Z,90.60
2017-12-24T05:28:28.773Z,90.50
2017-12-24T05:30:55.984Z,90.30
2017-12-24T05:33:23.197Z,90.60
2017-12-24T05:35:51.085Z,90.50
2017-12-24T05:38:18.252Z,90.50
2017-12-24T05:40:45.376Z,90.50
2017-12-24T05:43:12.512Z,90.70
2017-12-24T05:45:40.397Z,90.50
2017-12-24T05:48:07.541Z,90.50
2017-12-24T05:50:35.435Z,90.50
2017-12-24T05:53:02.574Z,90.50
2017-12-24T05:55:29.712Z,90.60
2017-12-24T05:57:56.870Z,90.50
2017-12-24T06:00:24.018Z,90.80
2017-12-24T06:02:51.134Z,90.70
2017-12-24T06:05:18.280Z,90.90
2017-12-24T06:07:45.406Z,90.80
2017-12-24T06:10:13.332Z,90.60
2017-12-24T06:12:40.456Z,90.60
2017-12-24T06:15:07.621Z,90.40
2017-12-24T06:17:35.517Z,90.30
2017-12-24T06:20:02.668Z,90.20
2017-12-24T06:22:29.801Z,90.30
2017-12-24T06:24:56.916Z,90.40
2017-12-24T06:27:24.052Z,90.30
2017-12-24T06:29:51.204Z,90.50
2017-12-24T06:32:18.348Z,89.50
2017-12-24T06:34:45.468Z,90.10
2017-12-24T06:37:12.608Z,90.20
2017-12-24T06:39:39.759Z,90.10
2017-12-24T06:42:06.977Z,90.30
2017-12-24T06:44:34.889Z,89.50
2017-12-24T06:47:02.029Z,89.40
2017-12-24T06:49:29.177Z,89.80
2017-12-24T06:51:56.328Z,89.80
2017-12-24T06:54:23.514Z,89.20
2017-12-24T06:56:51.595Z,90.00
2017-12-24T06:59:18.782Z,90.00
2017-12-24T07:01:45.904Z,89.20
2017-12-24T07:04:13.053Z,89.50
2017-12-24T07:06:40.194Z,89.50
2017-12-24T07:09:07.447Z,89.20
2017-12-24T07:11:34.580Z,89.30
2017-12-24T07:14:01.733Z,89.00
2017-12-24T07:16:28.867Z,88.20
2017-12-24T07:18:56.017Z,89.10
2017-12-24T07:21:23.144Z,88.90
2017-12-24T07:23:50.264Z,89.10
2017-12-24T07:26:18.177Z,89.10
2017-12-24T07:28:45.310Z,89.00
2017-12-24T07:31:12.470Z,89.00
2017-12-24T07:33:39.685Z,89.10
2017-12-24T07:36:07.572Z,88.60
2017-12-24T07:38:34.789Z,88.50
2017-12-24T07:41:01.906Z,88.40
2017-12-24T07:43:29.023Z,89.30
2017-12-24T07:45:56.218Z,87.80
2017-12-24T07:48:23.313Z,88.10
2017-12-24T07:50:50.468Z,89.10
2017-12-24T07:53:17.589Z,88.70
2017-12-24T07:55:45.494Z,89.00
2017-12-24T07:58:12.613Z,89.00
2017-12-24T08:00:39.767Z,88.90
2017-12-24T08:03:07.654Z,89.00
2017-12-24T08:05:34.823Z,89.00
2017-12-24T08:08:01.965Z,88.60
2017-12-24T08:10:29.119Z,88.30
2017-12-24T08:12:56.265Z,88.50
2017-12-24T08:15:23.395Z,88.20
2017-12-24T08:17:50.534Z,88.10
2017-12-24T08:20:17.664Z,87.90
2017-12-24T08:22:44.809Z,88.30
2017-12-24T08:25:11.937Z,87.90
2017-12-24T08:27:39.089Z,88.60
2017-12-24T08:30:06.206Z,87.80
2017-12-24T08:32:33.340Z,87.40
2017-12-24T08:35:00.468Z,87.60
2017-12-24T08:37:27.662Z,87.30
2017-12-24T08:39:54.885Z,87.00
2017-12-24T08:42:22.802Z,87.10
2017-12-24T08:44:49.964Z,87.10
2017-12-24T08:47:17.137Z,86.10
2017-12-24T08:49:44.311Z,87.40
2017-12-24T08:52:12.202Z,88.00
2017-12-24T08:54:39.338Z,88.00
2017-12-24T08:57:06.984Z,87.90
2017-12-24T08:59:34.149Z,88.50
2017-12-24T09:02:01.298Z,88.20
2017-12-24T09:04:28.468Z,87.70
2017-12-24T09:06:55.584Z,88.20
2017-12-24T09:09:22.776Z,88.70
2017-12-24T09:11:49.912Z,87.40
2017-12-24T09:14:17.073Z,86.90
2017-12-24T09:16:44.204Z,87.80
2017-12-24T09:19:11.353Z,87.30
2017-12-24T09:21:39.416Z,87.40
2017-12-24T09:24:06.542Z,87.30
2017-12-24T09:26:34.455Z,87.50
2017-12-24T09:29:01.585Z,87.50
2017-12-24T09:31:28.736Z,87.70
2017-12-24T09:33:55.873Z,88.10
2017-12-24T09:36:23.004Z,88.20
2017-12-24T09:38:50.882Z,88.10
2017-12-24T09:41:18.021Z,88.10
2017-12-24T09:43:45.915Z,88.00
2017-12-24T09:46:13.058Z,87.90
2017-12-24T09:48:40.202Z,87.60
2017-12-24T09:51:07.390Z,87.90
2017-12-24T09:53:34.542Z,87.50
2017-12-24T09:56:01.712Z,87.30
2017-12-24T09:58:28.849Z,86.30
2017-12-24T10:00:55.998Z,87.00
2017-12-24T10:03:23.157Z,85.80
2017-12-24T10:05:51.913Z,86.60
2017-12-24T10:08:19.057Z,86.00
2017-12-24T10:10:46.178Z,86.30
2017-12-24T10:13:14.123Z,85.90
2017-12-24T10:15:41.256Z,85.90
2017-12-24T10:18:08.418Z,86.10
2017-12-24T10:20:35.564Z,86.60
2017-12-24T10:23:02.949Z,85.90
2017-12-24T10:25:30.856Z,85.10
2017-12-24T10:27:57.988Z,85.10
2017-12-24T10:30:25.178Z,86.30
2017-12-24T10:32:52.304Z,85.10
2017-12-24T10:35:19.502Z,86.10
2017-12-24T10:37:47.407Z,86.70
2017-12-24T10:40:14.577Z,86.00
2017-12-24T10:42:41.698Z,85.80
2017-12-24T10:45:08.860Z,84.80
2017-12-24T10:47:35.999Z,84.40
2017-12-24T10:50:03.180Z,84.60
2017-12-24T10:52:30.431Z,85.10
2017-12-24T10:54:57.558Z,85.50
2017-12-24T10:57:24.703Z,84.50
2017-12-24T10:59:51.829Z,84.50
2017-12-24T11:02:19.770Z,84.20
2017-12-24T11:04:46.897Z,83.60
2017-12-24T11:07:14.800Z,84.60
2017-12-24T11:09:41.938Z,84.60
2017-12-24T11:12:09.082Z,84.20
2017-12-24T11:14:36.210Z,84.50
2017-12-24T11:17:03.362Z,84.80
2017-12-24T11:19:30.481Z,83.60
2017-12-24T11:21:57.727Z,84.50
2017-12-24T11:24:24.866Z,84.60
2017-12-24T11:26:52.017Z,84.80
2017-12-24T11:29:19.921Z,84.80
2017-12-24T11:31:47.057Z,84.70
2017-12-24T11:34:14.194Z,84.50
2017-12-24T11:36:41.342Z,85.00
2017-12-24T11:39:08.493Z,84.90
2017-12-24T11:41:36.829Z,84.30
2017-12-24T11:44:04.101Z,83.90
2017-12-24T11:46:32.010Z,82.90
2017-12-24T11:48:59.161Z,82.90
2017-12-24T11:51:26.322Z,82.70
2017-12-24T11:53:53.498Z,83.20
2017-12-24T11:56:20.626Z,83.20
2017-12-24T11:58:47.791Z,83.00
2017-12-24T12:01:14.996Z,83.30
2017-12-24T12:03:42.157Z,84.00
2017-12-24T12:06:09.306Z,84.20
2017-12-24T12:08:36.460Z,84.40
2017-12-24T12:11:03.610Z,84.30
2017-12-24T12:13:30.742Z,83.30
2017-12-24T12:15:57.893Z,83.60
2017-12-24T12:18:25.020Z,83.40
2017-12-24T12:20:52.903Z,83.70
2017-12-24T12:23:20.107Z,83.70
2017-12-24T12:25:47.263Z,84.30
2017-12-24T12:28:14.405Z,83.90
2017-12-24T12:30:41.559Z,84.20
2017-12-24T12:33:08.710Z,83.70
2017-12-24T12:35:35.846Z,84.20
2017-12-24T12:38:03.006Z,84.20
2017-12-24T12:40:30.166Z,84.30
2017-12-24T12:42:57.326Z,84.10
2017-12-24T12:45:25.267Z,83.50
2017-12-24T12:47:52.371Z,83.30
2017-12-24T12:50:19.500Z,83.10
2017-12-24T12:52:47.401Z,83.90
2017-12-24T12:55:14.606Z,83.90
2017-12-24T12:57:41.728Z,84.30
2017-12-24T13:00:08.871Z,83.60
2017-12-24T13:02:35.993Z,84.40
2017-12-24T13:05:03.150Z,83.50
2017-12-24T13:07:30.329Z,83.90
2017-12-24T13:09:57.477Z,84.00
2017-12-24T13:12:24.661Z,83.60
2017-12-24T13:14:51.840Z,84.30
2017-12-24T13:17:18.973Z,84.50
2017-12-24T13:19:46.884Z,84.20
2017-12-24T13:22:14.057Z,84.10
2017-12-24T13:24:41.209Z,84.00
2017-12-24T13:27:08.382Z,84.70
2017-12-24T13:29:36.263Z,84.10
2017-12-24T13:32:04.193Z,84.00
2017-12-24T13:34:31.330Z,83.90
2017-12-24T13:36:58.482Z,84.00
2017-12-24T13:39:25.620Z,84.70
2017-12-24T13:41:52.774Z,85.10
2017-12-24T13:44:19.935Z,85.20
2017-12-24T13:46:47.207Z,84.60
2017-12-24T13:49:15.126Z,85.60
2017-12-24T13:51:42.282Z,85.00
2017-12-24T13:54:09.505Z,84.90
2017-12-24T13:56:36.703Z,85.40
2017-12-24T13:59:03.909Z,85.70
2017-12-24T14:01:31.050Z,84.80
2017-12-24T14:03:58.210Z,85.20
2017-12-24T14:06:25.345Z,85.00
2017-12-24T14:08:53.250Z,86.00
2017-12-24T14:11:20.387Z,85.80
2017-12-24T14:13:47.536Z,85.50
2017-12-24T14:16:14.690Z,86.60
2017-12-24T14:18:41.833Z,86.30
2017-12-24T14:21:08.993Z,86.10
2017-12-24T14:23:36.141Z,86.30
2017-12-24T14:26:03.283Z,85.70
2017-12-24T14:28:30.413Z,86.10
2017-12-24T14:30:58.320Z,86.40
2017-12-24T14:33:25.453Z,86.40
2017-12-24T14:35:52.626Z,86.50
2017-12-24T14:38:20.514Z,86.90
2017-12-24T14:40:47.666Z,86.30
2017-12-24T14:43:14.837Z,86.10
2017-12-24T14:45:42.726Z,86.50
2017-12-24T14:48:09.871Z,86.40
2017-12-24T14:50:36.995Z,86.40
2017-12-24T14:53:04.906Z,87.30
2017-12-24T14:55:32.075Z,87.10
2017-12-24T14:57:59.383Z,87.20
2017-12-24T15:00:26.474Z,86.90
2017-12-24T15:02:53.608Z,87.00
2017-12-24T15:05:20.742Z,87.70
2017-12-24T15:07:47.900Z,87.40
2017-12-24T15:10:15.045Z,87.90
2017-12-24T15:12:42.174Z,87.40
2017-12-24T15:15:10.082Z,87.00
2017-12-24T15:17:37.214Z,87.00
2017-12-24T15:20:04.351Z,87.20
2017-12-24T15:22:31.473Z,87.50
2017-12-24T15:24:58.627Z,87.70
2017-12-24T15:27:26.534Z,87.30
2017-12-24T15:29:53.662Z,87.30
2017-12-24T15:32:21.588Z,87.30
2017-12-24T15:34:48.713Z,87.30
2017-12-24T15:37:15.953Z,87.40
2017-12-24T15:39:43.085Z,87.20
2017-12-24T15:42:10.230Z,87.50
2017-12-24T15:44:38.113Z,87.80
2017-12-24T15:47:05.278Z,87.80
2017-12-24T15:49:32.394Z,88.00
2017-12-24T15:52:00.301Z,88.50
2017-12-24T15:54:27.432Z,88.40
2017-12-24T15:56:54.569Z,88.20
2017-12-24T15:59:21.689Z,87.30
2017-12-24T16:01:48.819Z,87.60
2017-12-24T16:04:15.961Z,87.70
2017-12-24T16:06:43.099Z,87.60
2017-12-24T16:09:10.243Z,87.80
2017-12-24T16:11:37.377Z,87.50
2017-12-24T16:14:04.519Z,87.70
2017-12-24T16:16:31.694Z,88.10
2017-12-24T16:18:58.845Z,87.10
2017-12-24T16:21:25.957Z,87.10
2017-12-24T16:23:53.877Z,87.50
2017-12-24T16:26:21.003Z,87.40
2017-12-24T16:28:48.155Z,88.40
2017-12-24T16:31:15.320Z,87.80
2017-12-24T16:33:42.460Z,88.30
2017-12-24T16:36:09.585Z,88.10
2017-12-24T16:38:36.701Z,88.40
2017-12-24T16:41:04.620Z,88.50
2017-12-24T16:43:31.748Z,88.50
2017-12-24T16:45:58.909Z,88.70
2017-12-24T16:48:26.037Z,88.20
2017-12-24T16:50:53.192Z,87.70
2017-12-24T16:53:20.319Z,88.00
2017-12-24T16:55:48.224Z,88.50
2017-12-24T16:58:15.378Z,87.80
2017-12-24T17:00:42.534Z,87.80
2017-12-24T17:03:09.673Z,87.70
2017-12-24T17:05:36.821Z,87.90
2017-12-24T17:08:03.990Z,88.20
2017-12-24T17:10:31.160Z,88.50
2017-12-24T17:12:58.306Z,88.20
2017-12-24T17:15:25.481Z,87.50
2017-12-24T17:17:52.614Z,87.70
2017-12-24T17:20:20.123Z,88.50
2017-12-24T17:22:47.326Z,88.20
2017-12-24T17:25:14.464Z,88.40
2017-12-24T17:27:41.608Z,88.30
2017-12-24T17:30:08.771Z,88.30
2017-12-24T17:32:35.926Z,88.40
2017-12-24T17:35:03.090Z,88.50
2017-12-24T17:37:30.237Z,88.00
2017-12-24T17:39:57.374Z,88.00
2017-12-24T17:42:24.540Z,88.70
2017-12-24T17:44:52.444Z,88.70
2017-12-24T17:47:19.605Z,88.20
2017-12-24T17:49:46.737Z,88.30
2017-12-24T17:52:13.828Z,88.30
2017-12-24T17:54:40.983Z,88.40
2017-12-24T17:57:08.201Z,87.90
2017-12-24T17:59:35.698Z,88.40
2017-12-24T18:02:02.869Z,88.20
2017-12-24T18:04:30.793Z,88.00
2017-12-24T18:06:58.024Z,87.90
2017-12-24T18:09:25.168Z,88.00
2017-12-24T18:11:52.257Z,88.20
2017-12-24T18:14:19.783Z,87.90
2017-12-24T18:16:46.901Z,88.00
2017-12-24T18:19:14.797Z,87.80
2017-12-24T18:21:41.950Z,87.70
2017-12-24T18:24:09.101Z,88.10
2017-12-24T18:26:36.236Z,88.00
2017-12-24T18:29:03.406Z,88.00
2017-12-24T18:31:30.541Z,88.10
2017-12-24T18:33:57.660Z,88.70
2017-12-24T18:36:25.589Z,88.70
2017-12-24T18:38:52.772Z,88.70
2017-12-24T18:41:20.366Z,88.50
2017-12-24T18:43:47.488Z,88.30
2017-12-24T18:46:15.413Z,89.40
2017-12-24T18:48:42.533Z,89.30
2017-12-24T18:51:09.674Z,89.80
2017-12-24T18:53:36.794Z,89.10
2017-12-24T18:56:04.709Z,89.10
2017-12-24T18:58:31.886Z,89.10
2017-12-24T19:00:59.013Z,88.10
2017-12-24T19:03:26.161Z,88.10
2017-12-24T19:05:53.320Z,88.40
2017-12-24T19:08:20.469Z,89.20
2017-12-24T19:10:47.584Z,88.60
2017-12-24T19:13:14.741Z,89.50
2017-12-24T19:15:41.871Z,88.80
2017-12-24T19:18:09.783Z,88.40
2017-12-24T19:20:36.932Z,88.30
2017-12-24T19:23:04.057Z,89.10
2017-12-24T19:25:31.219Z,88.60
2017-12-24T19:27:58.344Z,88.50
2017-12-24T19:30:26.326Z,88.70
2017-12-24T19:32:53.477Z,88.70
2017-12-24T19:35:20.611Z,89.90
2017-12-24T19:37:48.524Z,88.90
2017-12-24T19:40:15.657Z,88.80
2017-12-24T19:42:42.798Z,88.80
2017-12-24T19:45:10.070Z,89.40
2017-12-24T19:47:37.271Z,89.60
2017-12-24T19:50:05.163Z,89.70
2017-12-24T19:52:32.309Z,89.70
2017-12-24T19:54:59.443Z,89.40
2017-12-24T19:57:27.366Z,89.70
2017-12-24T19:59:54.617Z,89.70
2017-12-24T20:02:21.851Z,88.70
2017-12-24T20:04:48.997Z,89.30
2017-12-24T20:07:16.130Z,89.70
2017-12-24T20:09:43.250Z,89.70
2017-12-24T20:12:11.157Z,90.00
2017-12-24T20:14:38.280Z,90.00
2017-12-24T20:17:05.435Z,89.90
2017-12-24T20:19:33.321Z,89.40
2017-12-24T20:22:00.480Z,89.40
2017-12-24T20:24:27.598Z,89.30
2017-12-24T20:26:55.502Z,89.40
2017-12-24T20:29:22.639Z,89.40
2017-12-24T20:31:49.776Z,89.10
2017-12-24T20:34:16.915Z,89.40
2017-12-24T20:36:44.076Z,89.60
2017-12-24T20:39:11.197Z,89.30
2017-12-24T20:41:39.353Z,89.40
2017-12-24T20:44:06.541Z,89.40
2017-12-24T20:46:33.693Z,89.20
2017-12-24T20:49:00.855Z,89.40
2017-12-24T20:51:28.007Z,89.80
2017-12-24T20:53:55.141Z,89.80
2017-12-24T20:56:22.310Z,89.70
2017-12-24T20:58:49.450Z,89.90
2017-12-24T21:01:16.570Z,90.00
2017-12-24T21:03:44.565Z,89.70
2017-12-24T21:06:11.826Z,89.70
2017-12-24T21:08:38.987Z,89.30
2017-12-24T21:11:06.113Z,90.00
2017-12-24T21:13:33.254Z,90.40
2017-12-24T21:16:00.402Z,90.30
2017-12-24T21:18:28.349Z,90.00
2017-12-24T21:20:55.497Z,90.00
2017-12-24T21:23:22.674Z,90.00
2017-12-24T21:25:50.574Z,90.30
2017-12-24T21:28:17.730Z,90.20
2017-12-24T21:30:44.881Z,90.40
2017-12-24T21:33:11.996Z,90.30
2017-12-24T21:35:39.134Z,90.30
2017-12-24T21:38:07.017Z,90.70
2017-12-24T21:40:34.186Z,90.70
2017-12-24T21:43:01.325Z,90.70
2017-12-24T21:45:28.483Z,90.50
2017-12-24T21:47:55.622Z,90.20
2017-12-24T21:50:22.812Z,89.90
2017-12-24T21:52:50.011Z,90.30
2017-12-24T21:55:17.246Z,90.30
2017-12-24T21:57:45.152Z,90.60
2017-12-24T22:00:12.298Z,90.60
2017-12-24T22:02:39.452Z,90.80
2017-12-24T22:05:06.581Z,90.50
2017-12-24T22:07:33.725Z,90.30
2017-12-24T22:10:00.853Z,90.40
2017-12-24T22:12:27.999Z,90.30
2017-12-24T22:14:55.152Z,90.60
2017-12-24T22:17:22.433Z,90.10
2017-12-24T22:19:49.602Z,89.70
2017-12-24T22:22:16.774Z,88.80
2017-12-24T22:24:44.677Z,89.60
2017-12-24T22:27:12.581Z,89.90
2017-12-24T22:29:39.745Z,89.80
2017-12-24T22:32:06.893Z,89.30
2017-12-24T22:34:34.037Z,90.10
2017-12-24T22:37:01.167Z,90.40
2017-12-24T22:39:28.333Z,90.20
2017-12-24T22:41:55.454Z,90.20
2017-12-24T22:44:23.408Z,90.20
2017-12-24T22:46:50.652Z,89.90
2017-12-24T22:49:17.805Z,90.10
2017-12-24T22:51:44.948Z,90.00
2017-12-24T22:54:12.107Z,89.80
2017-12-24T22:56:39.249Z,90.00
2017-12-24T22:59:07.422Z,89.70
2017-12-24T23:01:34.608Z,89.60
2017-12-24T23:04:01.796Z,90.00
2017-12-24T23:06:28.962Z,90.00
2017-12-24T23:08:56.089Z,89.70
2017-12-24T23:11:23.233Z,89.60
2017-12-24T23:13:50.387Z,89.20
2017-12-24T23:16:17.522Z,89.20
2017-12-24T23:18:44.666Z,89.70
2017-12-24T23:21:11.838Z,90.20
2017-12-24T23:23:38.949Z,89.20
2017-12-24T23:26:06.118Z,89.40
2017-12-24T23:28:33.246Z,89.20
2017-12-24T23:31:01.133Z,89.30
2017-12-24T23:33:29.064Z,88.00
2017-12-24T23:35:56.200Z,88.00
2017-12-24T23:38:23.345Z,88.70
2017-12-24T23:40:50.493Z,89.10
2017-12-24T23:43:17.623Z,89.20
2017-12-24T23:45:44.777Z,90.20
2017-12-24T23:48:12.725Z,89.40
2017-12-24T23:50:39.884Z,89.40
2017-12-24T23:53:07.042Z,89.50
2017-12-24T23:55:34.168Z,89.00
2017-12-24T23:58:01.300Z,89.70
